sensor_id;sensor_type;location;lat;lon;timestamp;temperature;humidity
25074;DHT22;13066;52.042;5.648;2022-10-23T00:02:20;14.30;99.90
25074;DHT22;13066;52.042;5.648;2022-10-23T00:04:51;14.30;99.90
25074;DHT22;13066;52.042;5.648;2022-10-23T00:07:19;14.30;99.90
25074;DHT22;13066;52.042;5.648;2022-10-23T00:09:47;14.30;99.90
25074;DHT22;13066;52.042;5.648;2022-10-23T00:12:15;14.30;99.90
25074;DHT22;13066;52.042;5.648;2022-10-23T00:14:43;14.20;99.90
25074;DHT22;13066;52.042;5.648;2022-10-23T00:17:11;14.20;99.90
25074;DHT22;13066;52.042;5.648;2022-10-23T00:19:39;14.20;99.90
25074;DHT22;13066;52.042;5.648;2022-10-23T00:22:08;14.20;99.90
25074;DHT22;13066;52.042;5.648;2022-10-23T00:24:36;14.20;99.90
25074;DHT22;13066;52.042;5.648;2022-10-23T00:27:04;14.20;99.90
25074;DHT22;13066;52.042;5.648;2022-10-23T00:29:32;14.10;99.90
25074;DHT22;13066;52.042;5.648;2022-10-23T00:32:00;14.10;99.90
25074;DHT22;13066;52.042;5.648;2022-10-23T00:34:28;14.10;99.90
25074;DHT22;13066;52.042;5.648;2022-10-23T00:36:56;14.10;99.90
25074;DHT22;13066;52.042;5.648;2022-10-23T00:39:25;14.10;99.90
25074;DHT22;13066;52.042;5.648;2022-10-23T00:41:53;14.10;99.90
25074;DHT22;13066;52.042;5.648;2022-10-23T00:47:26;14.10;99.90
25074;DHT22;13066;52.042;5.648;2022-10-23T00:49:54;14.00;99.90
25074;DHT22;13066;52.042;5.648;2022-10-23T00:52:22;13.90;99.90
25074;DHT22;13066;52.042;5.648;2022-10-23T00:54:52;13.90;99.90
25074;DHT22;13066;52.042;5.648;2022-10-23T00:57:20;13.90;99.90
25074;DHT22;13066;52.042;5.648;2022-10-23T00:59:48;13.90;99.90
25074;DHT22;13066;52.042;5.648;2022-10-23T01:02:16;14.00;99.90
25074;DHT22;13066;52.042;5.648;2022-10-23T01:04:44;13.90;99.90
25074;DHT22;13066;52.042;5.648;2022-10-23T01:07:16;13.90;99.90
25074;DHT22;13066;52.042;5.648;2022-10-23T01:09:49;13.90;99.90
25074;DHT22;13066;52.042;5.648;2022-10-23T01:12:25;13.90;99.90
25074;DHT22;13066;52.042;5.648;2022-10-23T01:15:02;13.90;99.90
25074;DHT22;13066;52.042;5.648;2022-10-23T01:17:35;13.90;99.90
25074;DHT22;13066;52.042;5.648;2022-10-23T01:20:18;13.90;99.90
25074;DHT22;13066;52.042;5.648;2022-10-23T01:28:53;13.90;99.90
25074;DHT22;13066;52.042;5.648;2022-10-23T01:31:27;13.90;99.90
25074;DHT22;13066;52.042;5.648;2022-10-23T01:33:59;13.90;99.90
25074;DHT22;13066;52.042;5.648;2022-10-23T01:36:31;13.90;99.90
25074;DHT22;13066;52.042;5.648;2022-10-23T01:39:03;13.90;99.90
25074;DHT22;13066;52.042;5.648;2022-10-23T01:41:37;13.90;99.90
25074;DHT22;13066;52.042;5.648;2022-10-23T01:44:10;13.90;99.90
25074;DHT22;13066;52.042;5.648;2022-10-23T01:46:42;13.90;99.90
25074;DHT22;13066;52.042;5.648;2022-10-23T01:49:12;13.80;99.90
25074;DHT22;13066;52.042;5.648;2022-10-23T01:51:44;13.80;99.90
25074;DHT22;13066;52.042;5.648;2022-10-23T01:54:13;13.80;99.90
25074;DHT22;13066;52.042;5.648;2022-10-23T01:56:46;13.80;99.90
25074;DHT22;13066;52.042;5.648;2022-10-23T01:59:20;13.80;99.90
25074;DHT22;13066;52.042;5.648;2022-10-23T02:01:51;13.80;99.90
25074;DHT22;13066;52.042;5.648;2022-10-23T02:04:24;13.80;99.90
25074;DHT22;13066;52.042;5.648;2022-10-23T02:06:54;13.80;99.90
25074;DHT22;13066;52.042;5.648;2022-10-23T02:09:22;13.80;99.90
25074;DHT22;13066;52.042;5.648;2022-10-23T02:11:54;13.80;99.90
25074;DHT22;13066;52.042;5.648;2022-10-23T02:14:35;13.80;99.90
25074;DHT22;13066;52.042;5.648;2022-10-23T02:17:10;13.80;99.90
25074;DHT22;13066;52.042;5.648;2022-10-23T02:19:46;13.80;99.90
25074;DHT22;13066;52.042;5.648;2022-10-23T02:22:19;13.80;99.90
25074;DHT22;13066;52.042;5.648;2022-10-23T02:24:50;13.70;99.90
25074;DHT22;13066;52.042;5.648;2022-10-23T02:27:24;13.70;99.90
25074;DHT22;13066;52.042;5.648;2022-10-23T02:29:56;13.70;99.90
25074;DHT22;13066;52.042;5.648;2022-10-23T02:32:28;13.70;99.90
25074;DHT22;13066;52.042;5.648;2022-10-23T02:34:56;13.70;99.90
25074;DHT22;13066;52.042;5.648;2022-10-23T02:37:24;13.70;99.90
25074;DHT22;13066;52.042;5.648;2022-10-23T02:39:53;13.70;99.90
25074;DHT22;13066;52.042;5.648;2022-10-23T02:42:25;13.70;99.90
25074;DHT22;13066;52.042;5.648;2022-10-23T02:45:02;13.70;99.90
25074;DHT22;13066;52.042;5.648;2022-10-23T02:47:42;13.70;99.90
25074;DHT22;13066;52.042;5.648;2022-10-23T02:50:23;13.60;99.90
25074;DHT22;13066;52.042;5.648;2022-10-23T02:52:58;13.60;99.90
25074;DHT22;13066;52.042;5.648;2022-10-23T02:55:42;13.70;99.90
25074;DHT22;13066;52.042;5.648;2022-10-23T02:58:18;13.60;99.90
25074;DHT22;13066;52.042;5.648;2022-10-23T03:00:51;13.60;99.90
25074;DHT22;13066;52.042;5.648;2022-10-23T03:03:21;13.60;99.90
25074;DHT22;13066;52.042;5.648;2022-10-23T03:05:51;13.50;99.90
25074;DHT22;13066;52.042;5.648;2022-10-23T03:08:19;13.50;99.90
25074;DHT22;13066;52.042;5.648;2022-10-23T03:10:47;13.50;99.90
25074;DHT22;13066;52.042;5.648;2022-10-23T03:13:15;13.50;99.90
25074;DHT22;13066;52.042;5.648;2022-10-23T03:15:43;13.50;99.90
25074;DHT22;13066;52.042;5.648;2022-10-23T03:18:12;13.50;99.90
25074;DHT22;13066;52.042;5.648;2022-10-23T03:20:40;13.50;99.90
25074;DHT22;13066;52.042;5.648;2022-10-23T03:23:11;13.50;99.90
25074;DHT22;13066;52.042;5.648;2022-10-23T03:25:39;13.50;99.90
25074;DHT22;13066;52.042;5.648;2022-10-23T03:28:07;13.50;99.90
25074;DHT22;13066;52.042;5.648;2022-10-23T03:30:35;13.50;99.90
25074;DHT22;13066;52.042;5.648;2022-10-23T03:33:03;13.50;99.90
25074;DHT22;13066;52.042;5.648;2022-10-23T03:35:32;13.50;99.90
25074;DHT22;13066;52.042;5.648;2022-10-23T03:38:00;13.50;99.90
25074;DHT22;13066;52.042;5.648;2022-10-23T03:40:28;13.50;99.90
25074;DHT22;13066;52.042;5.648;2022-10-23T03:42:56;13.50;99.90
25074;DHT22;13066;52.042;5.648;2022-10-23T03:45:24;13.60;99.90
25074;DHT22;13066;52.042;5.648;2022-10-23T03:47:52;13.60;99.90
25074;DHT22;13066;52.042;5.648;2022-10-23T03:50:20;13.60;99.90
25074;DHT22;13066;52.042;5.648;2022-10-23T03:52:49;13.60;99.90
25074;DHT22;13066;52.042;5.648;2022-10-23T03:55:17;13.60;99.90
25074;DHT22;13066;52.042;5.648;2022-10-23T03:57:45;13.60;99.90
25074;DHT22;13066;52.042;5.648;2022-10-23T04:00:13;13.60;99.90
25074;DHT22;13066;52.042;5.648;2022-10-23T04:02:41;13.60;99.90
25074;DHT22;13066;52.042;5.648;2022-10-23T04:05:10;13.60;99.90
25074;DHT22;13066;52.042;5.648;2022-10-23T04:07:38;13.60;99.90
25074;DHT22;13066;52.042;5.648;2022-10-23T04:10:08;13.60;99.90
25074;DHT22;13066;52.042;5.648;2022-10-23T04:12:36;13.60;99.90
25074;DHT22;13066;52.042;5.648;2022-10-23T04:15:04;13.60;99.90
25074;DHT22;13066;52.042;5.648;2022-10-23T04:17:32;13.60;99.90
25074;DHT22;13066;52.042;5.648;2022-10-23T04:20:00;13.60;99.90
25074;DHT22;13066;52.042;5.648;2022-10-23T04:22:28;13.60;99.90
25074;DHT22;13066;52.042;5.648;2022-10-23T04:24:56;13.60;99.90
25074;DHT22;13066;52.042;5.648;2022-10-23T04:27:25;13.60;99.90
25074;DHT22;13066;52.042;5.648;2022-10-23T04:29:53;13.70;99.90
25074;DHT22;13066;52.042;5.648;2022-10-23T04:32:25;13.70;99.90
25074;DHT22;13066;52.042;5.648;2022-10-23T04:34:53;13.70;99.90
25074;DHT22;13066;52.042;5.648;2022-10-23T04:37:20;13.70;99.90
25074;DHT22;13066;52.042;5.648;2022-10-23T04:39:48;13.70;99.90
25074;DHT22;13066;52.042;5.648;2022-10-23T04:42:16;13.70;99.90
25074;DHT22;13066;52.042;5.648;2022-10-23T04:44:46;13.70;99.90
25074;DHT22;13066;52.042;5.648;2022-10-23T04:47:14;13.70;99.90
25074;DHT22;13066;52.042;5.648;2022-10-23T04:49:41;13.70;99.90
25074;DHT22;13066;52.042;5.648;2022-10-23T04:52:09;13.70;99.90
25074;DHT22;13066;52.042;5.648;2022-10-23T04:54:38;13.70;99.90
25074;DHT22;13066;52.042;5.648;2022-10-23T04:57:06;13.70;99.90
25074;DHT22;13066;52.042;5.648;2022-10-23T04:59:34;13.70;99.90
25074;DHT22;13066;52.042;5.648;2022-10-23T05:02:03;13.70;99.90
25074;DHT22;13066;52.042;5.648;2022-10-23T05:04:32;13.70;99.90
25074;DHT22;13066;52.042;5.648;2022-10-23T05:07:00;13.80;99.90
25074;DHT22;13066;52.042;5.648;2022-10-23T05:09:28;13.80;99.90
25074;DHT22;13066;52.042;5.648;2022-10-23T05:11:56;13.80;99.90
25074;DHT22;13066;52.042;5.648;2022-10-23T05:14:23;13.80;99.90
25074;DHT22;13066;52.042;5.648;2022-10-23T05:16:54;13.80;99.90
25074;DHT22;13066;52.042;5.648;2022-10-23T05:19:29;13.90;99.90
25074;DHT22;13066;52.042;5.648;2022-10-23T05:21:59;13.90;99.90
25074;DHT22;13066;52.042;5.648;2022-10-23T05:24:28;13.90;99.90
25074;DHT22;13066;52.042;5.648;2022-10-23T05:26:56;13.90;99.90
25074;DHT22;13066;52.042;5.648;2022-10-23T05:29:24;13.90;99.90
25074;DHT22;13066;52.042;5.648;2022-10-23T05:31:56;14.00;99.90
25074;DHT22;13066;52.042;5.648;2022-10-23T05:34:28;14.00;99.90
25074;DHT22;13066;52.042;5.648;2022-10-23T05:36:56;14.00;99.90
25074;DHT22;13066;52.042;5.648;2022-10-23T05:39:24;14.10;99.90
25074;DHT22;13066;52.042;5.648;2022-10-23T05:41:53;14.10;99.90
25074;DHT22;13066;52.042;5.648;2022-10-23T05:44:21;14.10;99.90
25074;DHT22;13066;52.042;5.648;2022-10-23T05:46:49;14.20;99.90
25074;DHT22;13066;52.042;5.648;2022-10-23T05:49:17;14.20;99.90
25074;DHT22;13066;52.042;5.648;2022-10-23T05:51:46;14.20;99.90
25074;DHT22;13066;52.042;5.648;2022-10-23T05:54:14;14.20;99.90
25074;DHT22;13066;52.042;5.648;2022-10-23T05:56:42;14.30;99.90
25074;DHT22;13066;52.042;5.648;2022-10-23T05:59:10;14.30;99.90
25074;DHT22;13066;52.042;5.648;2022-10-23T06:01:38;14.30;99.90
25074;DHT22;13066;52.042;5.648;2022-10-23T06:04:06;14.30;99.90
25074;DHT22;13066;52.042;5.648;2022-10-23T06:06:34;14.30;99.90
25074;DHT22;13066;52.042;5.648;2022-10-23T06:09:04;14.30;99.90
25074;DHT22;13066;52.042;5.648;2022-10-23T06:11:32;14.40;99.90
25074;DHT22;13066;52.042;5.648;2022-10-23T06:14:00;14.40;99.90
25074;DHT22;13066;52.042;5.648;2022-10-23T06:16:28;14.40;99.90
25074;DHT22;13066;52.042;5.648;2022-10-23T06:18:56;14.40;99.90
25074;DHT22;13066;52.042;5.648;2022-10-23T06:21:24;14.50;99.90
25074;DHT22;13066;52.042;5.648;2022-10-23T06:23:53;14.50;99.90
25074;DHT22;13066;52.042;5.648;2022-10-23T06:26:22;14.50;99.90
25074;DHT22;13066;52.042;5.648;2022-10-23T06:28:50;14.50;99.90
25074;DHT22;13066;52.042;5.648;2022-10-23T06:31:18;14.50;99.90
25074;DHT22;13066;52.042;5.648;2022-10-23T06:33:52;14.50;99.90
25074;DHT22;13066;52.042;5.648;2022-10-23T06:36:20;14.50;99.90
25074;DHT22;13066;52.042;5.648;2022-10-23T06:38:48;14.50;99.90
25074;DHT22;13066;52.042;5.648;2022-10-23T06:41:19;14.50;99.90
25074;DHT22;13066;52.042;5.648;2022-10-23T06:43:50;14.60;99.90
25074;DHT22;13066;52.042;5.648;2022-10-23T06:46:18;14.60;99.90
25074;DHT22;13066;52.042;5.648;2022-10-23T06:48:46;14.60;99.90
25074;DHT22;13066;52.042;5.648;2022-10-23T06:51:15;14.60;99.90
25074;DHT22;13066;52.042;5.648;2022-10-23T06:53:44;14.60;99.90
25074;DHT22;13066;52.042;5.648;2022-10-23T06:56:12;14.60;99.90
25074;DHT22;13066;52.042;5.648;2022-10-23T06:58:42;14.60;99.90
25074;DHT22;13066;52.042;5.648;2022-10-23T07:01:12;14.60;99.90
25074;DHT22;13066;52.042;5.648;2022-10-23T07:03:42;14.60;99.90
25074;DHT22;13066;52.042;5.648;2022-10-23T07:06:10;14.70;99.90
25074;DHT22;13066;52.042;5.648;2022-10-23T07:08:38;14.70;99.90
25074;DHT22;13066;52.042;5.648;2022-10-23T07:11:09;14.70;99.90
25074;DHT22;13066;52.042;5.648;2022-10-23T07:13:37;14.70;99.90
25074;DHT22;13066;52.042;5.648;2022-10-23T07:16:13;14.70;99.90
25074;DHT22;13066;52.042;5.648;2022-10-23T07:18:41;14.70;99.90
25074;DHT22;13066;52.042;5.648;2022-10-23T07:21:09;14.70;99.90
25074;DHT22;13066;52.042;5.648;2022-10-23T07:23:37;14.70;99.90
25074;DHT22;13066;52.042;5.648;2022-10-23T07:26:07;14.70;99.90
25074;DHT22;13066;52.042;5.648;2022-10-23T07:28:35;14.80;99.90
25074;DHT22;13066;52.042;5.648;2022-10-23T07:31:03;14.80;99.90
25074;DHT22;13066;52.042;5.648;2022-10-23T07:33:33;14.80;99.90
25074;DHT22;13066;52.042;5.648;2022-10-23T07:36:03;14.80;99.90
25074;DHT22;13066;52.042;5.648;2022-10-23T07:38:31;14.90;99.90
25074;DHT22;13066;52.042;5.648;2022-10-23T07:41:00;14.90;99.90
25074;DHT22;13066;52.042;5.648;2022-10-23T07:43:29;14.90;99.90
25074;DHT22;13066;52.042;5.648;2022-10-23T07:45:58;14.90;99.90
25074;DHT22;13066;52.042;5.648;2022-10-23T07:48:26;15.00;99.90
25074;DHT22;13066;52.042;5.648;2022-10-23T07:50:58;15.00;99.90
25074;DHT22;13066;52.042;5.648;2022-10-23T07:53:28;15.00;99.90
25074;DHT22;13066;52.042;5.648;2022-10-23T07:55:57;15.00;99.90
25074;DHT22;13066;52.042;5.648;2022-10-23T07:58:26;15.00;99.90
25074;DHT22;13066;52.042;5.648;2022-10-23T08:00:56;15.10;99.90
25074;DHT22;13066;52.042;5.648;2022-10-23T08:03:25;15.10;99.90
25074;DHT22;13066;52.042;5.648;2022-10-23T08:05:53;15.10;99.90
25074;DHT22;13066;52.042;5.648;2022-10-23T08:08:23;15.10;99.90
25074;DHT22;13066;52.042;5.648;2022-10-23T08:10:53;15.20;99.90
25074;DHT22;13066;52.042;5.648;2022-10-23T08:13:22;15.20;99.90
25074;DHT22;13066;52.042;5.648;2022-10-23T08:15:50;15.20;99.90
25074;DHT22;13066;52.042;5.648;2022-10-23T08:18:19;15.30;99.90
25074;DHT22;13066;52.042;5.648;2022-10-23T08:20:47;15.20;99.90
25074;DHT22;13066;52.042;5.648;2022-10-23T08:23:18;15.30;99.90
25074;DHT22;13066;52.042;5.648;2022-10-23T08:25:47;15.30;99.90
25074;DHT22;13066;52.042;5.648;2022-10-23T08:28:15;15.30;99.90
25074;DHT22;13066;52.042;5.648;2022-10-23T08:30:43;15.40;99.90
25074;DHT22;13066;52.042;5.648;2022-10-23T08:33:11;15.40;99.90
25074;DHT22;13066;52.042;5.648;2022-10-23T08:35:39;15.40;99.90
25074;DHT22;13066;52.042;5.648;2022-10-23T08:38:09;15.50;99.90
25074;DHT22;13066;52.042;5.648;2022-10-23T08:40:37;15.50;99.90
25074;DHT22;13066;52.042;5.648;2022-10-23T08:43:13;15.50;99.90
25074;DHT22;13066;52.042;5.648;2022-10-23T08:45:44;15.60;99.90
25074;DHT22;13066;52.042;5.648;2022-10-23T08:48:18;15.60;99.90
25074;DHT22;13066;52.042;5.648;2022-10-23T08:50:52;15.60;99.90
25074;DHT22;13066;52.042;5.648;2022-10-23T08:53:25;15.70;99.90
25074;DHT22;13066;52.042;5.648;2022-10-23T08:56:00;15.70;99.90
25074;DHT22;13066;52.042;5.648;2022-10-23T08:58:34;15.70;99.90
25074;DHT22;13066;52.042;5.648;2022-10-23T09:01:09;15.70;99.90
25074;DHT22;13066;52.042;5.648;2022-10-23T09:03:45;15.80;99.90
25074;DHT22;13066;52.042;5.648;2022-10-23T09:06:19;15.70;99.90
25074;DHT22;13066;52.042;5.648;2022-10-23T09:08:58;15.80;99.90
25074;DHT22;13066;52.042;5.648;2022-10-23T09:11:30;15.80;99.90
25074;DHT22;13066;52.042;5.648;2022-10-23T09:14:28;15.90;99.90
25074;DHT22;13066;52.042;5.648;2022-10-23T09:17:11;16.00;99.90
25074;DHT22;13066;52.042;5.648;2022-10-23T09:19:43;16.00;99.90
25074;DHT22;13066;52.042;5.648;2022-10-23T09:22:12;16.10;99.90
25074;DHT22;13066;52.042;5.648;2022-10-23T09:24:42;16.10;99.90
25074;DHT22;13066;52.042;5.648;2022-10-23T09:27:14;16.20;99.90
25074;DHT22;13066;52.042;5.648;2022-10-23T09:29:48;16.20;99.90
25074;DHT22;13066;52.042;5.648;2022-10-23T09:32:18;16.20;99.90
25074;DHT22;13066;52.042;5.648;2022-10-23T09:34:51;16.30;99.90
25074;DHT22;13066;52.042;5.648;2022-10-23T09:37:22;16.30;99.90
25074;DHT22;13066;52.042;5.648;2022-10-23T09:40:02;16.30;99.90
25074;DHT22;13066;52.042;5.648;2022-10-23T09:42:30;16.40;99.90
25074;DHT22;13066;52.042;5.648;2022-10-23T09:44:59;16.40;99.90
25074;DHT22;13066;52.042;5.648;2022-10-23T09:47:27;16.40;99.90
25074;DHT22;13066;52.042;5.648;2022-10-23T09:49:55;16.40;99.90
25074;DHT22;13066;52.042;5.648;2022-10-23T09:52:28;16.40;99.90
25074;DHT22;13066;52.042;5.648;2022-10-23T09:55:00;16.40;99.90
25074;DHT22;13066;52.042;5.648;2022-10-23T09:57:30;16.50;99.90
25074;DHT22;13066;52.042;5.648;2022-10-23T10:00:03;16.50;99.90
25074;DHT22;13066;52.042;5.648;2022-10-23T10:02:35;16.50;99.90
25074;DHT22;13066;52.042;5.648;2022-10-23T10:05:21;16.50;99.90
25074;DHT22;13066;52.042;5.648;2022-10-23T10:07:55;16.50;99.90
25074;DHT22;13066;52.042;5.648;2022-10-23T10:10:27;16.50;99.90
25074;DHT22;13066;52.042;5.648;2022-10-23T10:12:59;16.50;99.90
25074;DHT22;13066;52.042;5.648;2022-10-23T10:15:32;16.60;99.90
25074;DHT22;13066;52.042;5.648;2022-10-23T10:18:09;16.60;99.90
25074;DHT22;13066;52.042;5.648;2022-10-23T10:20:56;16.60;99.90
25074;DHT22;13066;52.042;5.648;2022-10-23T10:23:33;16.70;99.90
25074;DHT22;13066;52.042;5.648;2022-10-23T10:26:14;16.70;99.90
25074;DHT22;13066;52.042;5.648;2022-10-23T10:28:56;16.70;99.90
25074;DHT22;13066;52.042;5.648;2022-10-23T10:31:35;16.70;99.90
25074;DHT22;13066;52.042;5.648;2022-10-23T10:34:12;16.80;99.90
25074;DHT22;13066;52.042;5.648;2022-10-23T10:36:50;16.80;99.90
25074;DHT22;13066;52.042;5.648;2022-10-23T10:39:37;16.90;99.90
25074;DHT22;13066;52.042;5.648;2022-10-23T10:42:25;16.90;99.90
25074;DHT22;13066;52.042;5.648;2022-10-23T10:45:07;17.00;99.90
25074;DHT22;13066;52.042;5.648;2022-10-23T10:47:48;17.00;99.90
25074;DHT22;13066;52.042;5.648;2022-10-23T10:50:24;17.10;99.90
25074;DHT22;13066;52.042;5.648;2022-10-23T10:52:59;17.10;99.90
25074;DHT22;13066;52.042;5.648;2022-10-23T10:55:34;17.20;99.90
25074;DHT22;13066;52.042;5.648;2022-10-23T10:58:09;17.30;99.90
25074;DHT22;13066;52.042;5.648;2022-10-23T11:00:40;17.40;99.90
25074;DHT22;13066;52.042;5.648;2022-10-23T11:03:20;17.40;99.90
25074;DHT22;13066;52.042;5.648;2022-10-23T11:05:53;17.50;99.90
25074;DHT22;13066;52.042;5.648;2022-10-23T11:08:29;17.50;99.90
25074;DHT22;13066;52.042;5.648;2022-10-23T11:11:18;17.60;99.90
25074;DHT22;13066;52.042;5.648;2022-10-23T11:13:49;17.60;99.90
25074;DHT22;13066;52.042;5.648;2022-10-23T11:16:21;17.60;99.90
25074;DHT22;13066;52.042;5.648;2022-10-23T11:19:02;17.70;99.90
25074;DHT22;13066;52.042;5.648;2022-10-23T11:21:40;17.70;99.90
25074;DHT22;13066;52.042;5.648;2022-10-23T11:24:34;17.70;99.90
25074;DHT22;13066;52.042;5.648;2022-10-23T11:27:25;17.80;99.90
25074;DHT22;13066;52.042;5.648;2022-10-23T11:30:07;17.80;99.90
25074;DHT22;13066;52.042;5.648;2022-10-23T11:32:45;17.80;99.90
25074;DHT22;13066;52.042;5.648;2022-10-23T11:35:25;17.80;99.90
25074;DHT22;13066;52.042;5.648;2022-10-23T11:38:08;17.80;99.90
25074;DHT22;13066;52.042;5.648;2022-10-23T11:40:43;17.90;99.90
25074;DHT22;13066;52.042;5.648;2022-10-23T11:43:12;17.90;99.90
25074;DHT22;13066;52.042;5.648;2022-10-23T11:45:40;17.90;99.90
25074;DHT22;13066;52.042;5.648;2022-10-23T11:48:20;18.00;99.90
25074;DHT22;13066;52.042;5.648;2022-10-23T11:50:52;18.10;99.90
25074;DHT22;13066;52.042;5.648;2022-10-23T11:53:26;18.10;99.90
25074;DHT22;13066;52.042;5.648;2022-10-23T11:55:57;18.10;99.90
25074;DHT22;13066;52.042;5.648;2022-10-23T11:58:26;18.20;99.90
25074;DHT22;13066;52.042;5.648;2022-10-23T12:01:01;18.30;99.90
25074;DHT22;13066;52.042;5.648;2022-10-23T12:03:48;18.30;99.90
25074;DHT22;13066;52.042;5.648;2022-10-23T12:06:22;18.30;99.90
25074;DHT22;13066;52.042;5.648;2022-10-23T12:08:54;18.40;99.90
25074;DHT22;13066;52.042;5.648;2022-10-23T12:11:38;18.40;99.90
25074;DHT22;13066;52.042;5.648;2022-10-23T12:14:25;18.40;99.90
25074;DHT22;13066;52.042;5.648;2022-10-23T12:16:53;18.50;99.90
25074;DHT22;13066;52.042;5.648;2022-10-23T12:19:23;18.50;99.90
25074;DHT22;13066;52.042;5.648;2022-10-23T12:21:55;18.50;99.90
25074;DHT22;13066;52.042;5.648;2022-10-23T12:24:52;18.60;99.90
25074;DHT22;13066;52.042;5.648;2022-10-23T12:27:29;18.70;99.90
25074;DHT22;13066;52.042;5.648;2022-10-23T12:30:10;18.70;99.90
25074;DHT22;13066;52.042;5.648;2022-10-23T12:35:52;18.70;99.90
25074;DHT22;13066;52.042;5.648;2022-10-23T12:38:24;18.80;99.90
25074;DHT22;13066;52.042;5.648;2022-10-23T12:41:02;18.80;99.90
25074;DHT22;13066;52.042;5.648;2022-10-23T12:43:35;18.80;99.90
25074;DHT22;13066;52.042;5.648;2022-10-23T12:46:17;18.90;99.90
25074;DHT22;13066;52.042;5.648;2022-10-23T12:48:49;18.90;99.90
25074;DHT22;13066;52.042;5.648;2022-10-23T12:51:22;18.90;99.90
25074;DHT22;13066;52.042;5.648;2022-10-23T12:53:52;18.90;99.90
25074;DHT22;13066;52.042;5.648;2022-10-23T12:56:20;18.90;99.90
25074;DHT22;13066;52.042;5.648;2022-10-23T12:58:50;19.00;99.90
25074;DHT22;13066;52.042;5.648;2022-10-23T13:01:24;19.00;99.90
25074;DHT22;13066;52.042;5.648;2022-10-23T13:03:55;19.10;99.90
25074;DHT22;13066;52.042;5.648;2022-10-23T13:06:25;19.10;99.90
25074;DHT22;13066;52.042;5.648;2022-10-23T13:08:55;19.00;99.90
25074;DHT22;13066;52.042;5.648;2022-10-23T13:11:24;19.00;99.90
25074;DHT22;13066;52.042;5.648;2022-10-23T13:13:53;19.10;99.90
25074;DHT22;13066;52.042;5.648;2022-10-23T13:16:22;19.10;99.90
25074;DHT22;13066;52.042;5.648;2022-10-23T13:18:50;19.20;99.90
25074;DHT22;13066;52.042;5.648;2022-10-23T13:21:21;19.20;99.90
25074;DHT22;13066;52.042;5.648;2022-10-23T13:23:49;19.20;99.90
25074;DHT22;13066;52.042;5.648;2022-10-23T13:26:29;19.20;99.90
25074;DHT22;13066;52.042;5.648;2022-10-23T13:28:59;19.30;99.90
25074;DHT22;13066;52.042;5.648;2022-10-23T13:31:34;19.30;99.90
25074;DHT22;13066;52.042;5.648;2022-10-23T13:34:17;19.30;99.90
25074;DHT22;13066;52.042;5.648;2022-10-23T13:36:54;19.30;99.90
25074;DHT22;13066;52.042;5.648;2022-10-23T13:39:24;19.30;99.90
25074;DHT22;13066;52.042;5.648;2022-10-23T13:41:54;19.30;99.90
25074;DHT22;13066;52.042;5.648;2022-10-23T13:44:23;19.40;99.90
25074;DHT22;13066;52.042;5.648;2022-10-23T13:46:52;19.40;99.90
25074;DHT22;13066;52.042;5.648;2022-10-23T13:49:20;19.40;99.90
25074;DHT22;13066;52.042;5.648;2022-10-23T13:51:50;19.40;99.90
25074;DHT22;13066;52.042;5.648;2022-10-23T13:54:19;19.40;99.90
25074;DHT22;13066;52.042;5.648;2022-10-23T13:56:47;19.40;99.90
25074;DHT22;13066;52.042;5.648;2022-10-23T13:59:17;19.40;99.90
25074;DHT22;13066;52.042;5.648;2022-10-23T14:01:47;19.50;99.90
25074;DHT22;13066;52.042;5.648;2022-10-23T14:04:16;19.50;99.90
25074;DHT22;13066;52.042;5.648;2022-10-23T14:06:45;19.50;99.90
25074;DHT22;13066;52.042;5.648;2022-10-23T14:09:14;19.50;99.90
25074;DHT22;13066;52.042;5.648;2022-10-23T14:11:43;19.50;99.90
25074;DHT22;13066;52.042;5.648;2022-10-23T14:14:11;19.50;99.90
25074;DHT22;13066;52.042;5.648;2022-10-23T14:16:40;19.50;99.90
25074;DHT22;13066;52.042;5.648;2022-10-23T14:19:09;19.50;99.90
25074;DHT22;13066;52.042;5.648;2022-10-23T14:21:37;19.50;99.90
25074;DHT22;13066;52.042;5.648;2022-10-23T14:24:07;19.50;99.90
25074;DHT22;13066;52.042;5.648;2022-10-23T14:26:35;19.50;99.90
25074;DHT22;13066;52.042;5.648;2022-10-23T14:29:03;19.50;99.90
25074;DHT22;13066;52.042;5.648;2022-10-23T14:31:37;19.50;99.90
25074;DHT22;13066;52.042;5.648;2022-10-23T14:34:06;19.50;99.90
25074;DHT22;13066;52.042;5.648;2022-10-23T14:36:34;19.50;99.90
25074;DHT22;13066;52.042;5.648;2022-10-23T14:39:22;19.50;99.90
25074;DHT22;13066;52.042;5.648;2022-10-23T14:41:50;19.50;99.90
25074;DHT22;13066;52.042;5.648;2022-10-23T14:44:18;19.50;99.90
25074;DHT22;13066;52.042;5.648;2022-10-23T14:46:46;19.40;99.90
25074;DHT22;13066;52.042;5.648;2022-10-23T14:49:15;19.40;99.90
25074;DHT22;13066;52.042;5.648;2022-10-23T14:51:43;19.50;99.90
25074;DHT22;13066;52.042;5.648;2022-10-23T14:54:11;19.50;99.90
25074;DHT22;13066;52.042;5.648;2022-10-23T14:56:39;19.40;99.90
25074;DHT22;13066;52.042;5.648;2022-10-23T14:59:07;19.40;99.90
25074;DHT22;13066;52.042;5.648;2022-10-23T15:01:38;19.40;99.90
25074;DHT22;13066;52.042;5.648;2022-10-23T15:04:11;19.40;99.90
25074;DHT22;13066;52.042;5.648;2022-10-23T15:06:42;19.40;99.90
25074;DHT22;13066;52.042;5.648;2022-10-23T15:09:12;19.40;99.90
25074;DHT22;13066;52.042;5.648;2022-10-23T15:11:40;19.30;99.90
25074;DHT22;13066;52.042;5.648;2022-10-23T15:14:08;19.30;99.90
25074;DHT22;13066;52.042;5.648;2022-10-23T15:16:36;19.30;99.90
25074;DHT22;13066;52.042;5.648;2022-10-23T15:19:08;19.30;99.90
25074;DHT22;13066;52.042;5.648;2022-10-23T15:21:44;19.20;99.90
25074;DHT22;13066;52.042;5.648;2022-10-23T15:24:12;19.20;99.90
25074;DHT22;13066;52.042;5.648;2022-10-23T15:26:40;19.20;99.90
25074;DHT22;13066;52.042;5.648;2022-10-23T15:29:09;19.20;99.90
25074;DHT22;13066;52.042;5.648;2022-10-23T15:31:43;19.10;99.90
25074;DHT22;13066;52.042;5.648;2022-10-23T15:34:13;19.10;99.90
25074;DHT22;13066;52.042;5.648;2022-10-23T15:36:44;19.00;99.90
25074;DHT22;13066;52.042;5.648;2022-10-23T15:39:15;19.00;99.90
25074;DHT22;13066;52.042;5.648;2022-10-23T15:41:43;19.00;99.90
25074;DHT22;13066;52.042;5.648;2022-10-23T15:44:14;18.90;99.90
25074;DHT22;13066;52.042;5.648;2022-10-23T15:46:42;18.90;99.90
25074;DHT22;13066;52.042;5.648;2022-10-23T15:49:11;18.90;99.90
25074;DHT22;13066;52.042;5.648;2022-10-23T15:51:40;18.90;99.90
25074;DHT22;13066;52.042;5.648;2022-10-23T15:54:12;18.80;99.90
25074;DHT22;13066;52.042;5.648;2022-10-23T15:56:42;18.80;99.90
25074;DHT22;13066;52.042;5.648;2022-10-23T15:59:10;18.80;99.90
25074;DHT22;13066;52.042;5.648;2022-10-23T16:01:38;18.70;99.90
25074;DHT22;13066;52.042;5.648;2022-10-23T16:04:06;18.70;99.90
25074;DHT22;13066;52.042;5.648;2022-10-23T16:06:34;18.70;99.90
25074;DHT22;13066;52.042;5.648;2022-10-23T16:09:02;18.70;99.90